sensor_id;sensor_type;location;lat;lon;timestamp;P1;durP1;ratioP1;P2;durP2;ratioP2
68106;SDS011;54892;47.488;19.026;2022-07-29T00:00:25;3.33;;;1.77;;
68106;SDS011;54892;47.488;19.026;2022-07-29T00:03:28;3.00;;;1.80;;
68106;SDS011;54892;47.488;19.026;2022-07-29T00:06:33;2.50;;;1.80;;
68106;SDS011;54892;47.488;19.026;2022-07-29T00:09:36;7.40;;;2.10;;
68106;SDS011;54892;47.488;19.026;2022-07-29T00:12:40;4.55;;;1.95;;
68106;SDS011;54892;47.488;19.026;2022-07-29T00:15:43;5.45;;;1.92;;
68106;SDS011;54892;47.488;19.026;2022-07-29T00:18:46;4.12;;;2.10;;
68106;SDS011;54892;47.488;19.026;2022-07-29T00:21:50;3.17;;;1.98;;
68106;SDS011;54892;47.488;19.026;2022-07-29T00:24:53;2.37;;;1.98;;
68106;SDS011;54892;47.488;19.026;2022-07-29T00:27:56;7.28;;;1.95;;
68106;SDS011;54892;47.488;19.026;2022-07-29T00:31:00;5.20;;;2.10;;
68106;SDS011;54892;47.488;19.026;2022-07-29T00:34:03;6.55;;;2.05;;
68106;SDS011;54892;47.488;19.026;2022-07-29T00:37:09;6.25;;;2.03;;
68106;SDS011;54892;47.488;19.026;2022-07-29T00:40:11;5.28;;;2.30;;
68106;SDS011;54892;47.488;19.026;2022-07-29T00:43:15;7.55;;;1.95;;
68106;SDS011;54892;47.488;19.026;2022-07-29T00:46:19;6.62;;;1.75;;
68106;SDS011;54892;47.488;19.026;2022-07-29T00:49:22;3.15;;;1.62;;
68106;SDS011;54892;47.488;19.026;2022-07-29T00:52:27;4.57;;;2.05;;
68106;SDS011;54892;47.488;19.026;2022-07-29T00:55:30;3.75;;;2.10;;
68106;SDS011;54892;47.488;19.026;2022-07-29T00:58:34;3.87;;;1.90;;
68106;SDS011;54892;47.488;19.026;2022-07-29T01:01:37;5.20;;;1.90;;
68106;SDS011;54892;47.488;19.026;2022-07-29T01:04:40;3.42;;;1.90;;
68106;SDS011;54892;47.488;19.026;2022-07-29T01:07:46;2.95;;;1.83;;
68106;SDS011;54892;47.488;19.026;2022-07-29T01:10:51;5.72;;;1.98;;
68106;SDS011;54892;47.488;19.026;2022-07-29T01:13:55;2.72;;;1.83;;
68106;SDS011;54892;47.488;19.026;2022-07-29T01:17:00;2.97;;;1.80;;
68106;SDS011;54892;47.488;19.026;2022-07-29T01:20:10;5.10;;;1.90;;
68106;SDS011;54892;47.488;19.026;2022-07-29T01:23:30;4.70;;;2.12;;
68106;SDS011;54892;47.488;19.026;2022-07-29T01:26:49;2.30;;;2.10;;
68106;SDS011;54892;47.488;19.026;2022-07-29T01:29:59;3.45;;;1.83;;
68106;SDS011;54892;47.488;19.026;2022-07-29T01:33:06;2.47;;;2.00;;
68106;SDS011;54892;47.488;19.026;2022-07-29T01:36:35;3.95;;;1.80;;
68106;SDS011;54892;47.488;19.026;2022-07-29T01:39:39;3.72;;;2.30;;
68106;SDS011;54892;47.488;19.026;2022-07-29T01:42:45;3.53;;;1.92;;
68106;SDS011;54892;47.488;19.026;2022-07-29T01:45:56;5.57;;;2.10;;
68106;SDS011;54892;47.488;19.026;2022-07-29T01:49:06;3.62;;;1.92;;
68106;SDS011;54892;47.488;19.026;2022-07-29T01:52:13;1.92;;;1.75;;
68106;SDS011;54892;47.488;19.026;2022-07-29T01:55:25;3.92;;;1.90;;
68106;SDS011;54892;47.488;19.026;2022-07-29T01:58:31;2.35;;;1.85;;
68106;SDS011;54892;47.488;19.026;2022-07-29T02:01:38;2.50;;;2.05;;
68106;SDS011;54892;47.488;19.026;2022-07-29T02:04:43;3.25;;;2.00;;
68106;SDS011;54892;47.488;19.026;2022-07-29T02:07:50;3.17;;;2.10;;
68106;SDS011;54892;47.488;19.026;2022-07-29T02:10:55;2.70;;;1.95;;
68106;SDS011;54892;47.488;19.026;2022-07-29T02:14:00;4.78;;;2.05;;
68106;SDS011;54892;47.488;19.026;2022-07-29T02:17:06;2.85;;;2.30;;
68106;SDS011;54892;47.488;19.026;2022-07-29T02:20:10;2.78;;;1.85;;
68106;SDS011;54892;47.488;19.026;2022-07-29T02:23:15;4.50;;;1.90;;
68106;SDS011;54892;47.488;19.026;2022-07-29T02:26:23;2.83;;;1.92;;
68106;SDS011;54892;47.488;19.026;2022-07-29T02:29:28;2.37;;;2.00;;
68106;SDS011;54892;47.488;19.026;2022-07-29T02:32:35;4.90;;;1.80;;
68106;SDS011;54892;47.488;19.026;2022-07-29T02:35:42;7.10;;;2.22;;
68106;SDS011;54892;47.488;19.026;2022-07-29T02:38:46;4.25;;;2.00;;
68106;SDS011;54892;47.488;19.026;2022-07-29T02:41:55;4.32;;;2.00;;
68106;SDS011;54892;47.488;19.026;2022-07-29T02:45:04;3.12;;;2.05;;
68106;SDS011;54892;47.488;19.026;2022-07-29T02:48:12;4.20;;;2.28;;
68106;SDS011;54892;47.488;19.026;2022-07-29T02:51:19;4.55;;;2.17;;
68106;SDS011;54892;47.488;19.026;2022-07-29T02:54:31;3.08;;;2.03;;
68106;SDS011;54892;47.488;19.026;2022-07-29T02:57:41;2.53;;;1.95;;
68106;SDS011;54892;47.488;19.026;2022-07-29T03:00:47;2.62;;;2.10;;
68106;SDS011;54892;47.488;19.026;2022-07-29T03:03:54;4.10;;;2.00;;
68106;SDS011;54892;47.488;19.026;2022-07-29T03:06:58;4.12;;;2.10;;
68106;SDS011;54892;47.488;19.026;2022-07-29T03:10:03;5.57;;;2.37;;
68106;SDS011;54892;47.488;19.026;2022-07-29T03:13:09;4.05;;;2.10;;
68106;SDS011;54892;47.488;19.026;2022-07-29T03:16:13;3.30;;;2.20;;
68106;SDS011;54892;47.488;19.026;2022-07-29T03:19:19;7.90;;;2.08;;
68106;SDS011;54892;47.488;19.026;2022-07-29T03:22:23;2.72;;;2.05;;
68106;SDS011;54892;47.488;19.026;2022-07-29T03:25:27;2.50;;;2.10;;
68106;SDS011;54892;47.488;19.026;2022-07-29T03:28:30;5.82;;;2.30;;
68106;SDS011;54892;47.488;19.026;2022-07-29T03:31:34;3.60;;;2.42;;
68106;SDS011;54892;47.488;19.026;2022-07-29T03:34:39;3.17;;;1.90;;
68106;SDS011;54892;47.488;19.026;2022-07-29T03:37:42;9.38;;;2.55;;
68106;SDS011;54892;47.488;19.026;2022-07-29T03:40:46;5.55;;;2.30;;
68106;SDS011;54892;47.488;19.026;2022-07-29T03:43:54;4.82;;;2.30;;
68106;SDS011;54892;47.488;19.026;2022-07-29T03:46:59;4.25;;;2.33;;
68106;SDS011;54892;47.488;19.026;2022-07-29T03:50:06;3.40;;;2.30;;
68106;SDS011;54892;47.488;19.026;2022-07-29T03:53:13;3.87;;;2.00;;
68106;SDS011;54892;47.488;19.026;2022-07-29T03:56:17;5.55;;;2.35;;
68106;SDS011;54892;47.488;19.026;2022-07-29T03:59:24;3.75;;;2.20;;
68106;SDS011;54892;47.488;19.026;2022-07-29T04:02:29;5.72;;;2.10;;
68106;SDS011;54892;47.488;19.026;2022-07-29T04:05:34;3.22;;;2.10;;
68106;SDS011;54892;47.488;19.026;2022-07-29T04:08:37;5.68;;;2.60;;
68106;SDS011;54892;47.488;19.026;2022-07-29T04:11:40;4.78;;;2.25;;
68106;SDS011;54892;47.488;19.026;2022-07-29T04:14:44;4.82;;;2.35;;
68106;SDS011;54892;47.488;19.026;2022-07-29T04:17:47;5.25;;;2.10;;
68106;SDS011;54892;47.488;19.026;2022-07-29T04:20:52;6.10;;;2.72;;
68106;SDS011;54892;47.488;19.026;2022-07-29T04:23:55;5.72;;;2.25;;
68106;SDS011;54892;47.488;19.026;2022-07-29T04:26:58;4.95;;;2.22;;
68106;SDS011;54892;47.488;19.026;2022-07-29T04:30:01;5.80;;;2.47;;
68106;SDS011;54892;47.488;19.026;2022-07-29T04:33:06;7.07;;;2.40;;
68106;SDS011;54892;47.488;19.026;2022-07-29T04:36:10;4.95;;;2.40;;
68106;SDS011;54892;47.488;19.026;2022-07-29T04:39:14;4.62;;;2.60;;
68106;SDS011;54892;47.488;19.026;2022-07-29T04:42:22;4.25;;;2.47;;
68106;SDS011;54892;47.488;19.026;2022-07-29T04:45:25;5.55;;;2.50;;
68106;SDS011;54892;47.488;19.026;2022-07-29T04:48:28;8.15;;;2.47;;
68106;SDS011;54892;47.488;19.026;2022-07-29T04:51:33;4.40;;;2.58;;
68106;SDS011;54892;47.488;19.026;2022-07-29T04:54:36;5.80;;;2.58;;
68106;SDS011;54892;47.488;19.026;2022-07-29T04:57:39;7.65;;;2.47;;
68106;SDS011;54892;47.488;19.026;2022-07-29T05:00:42;6.60;;;2.40;;
68106;SDS011;54892;47.488;19.026;2022-07-29T05:03:45;12.27;;;2.53;;
68106;SDS011;54892;47.488;19.026;2022-07-29T05:06:50;13.20;;;2.60;;
68106;SDS011;54892;47.488;19.026;2022-07-29T05:09:53;6.37;;;2.28;;
68106;SDS011;54892;47.488;19.026;2022-07-29T05:12:58;4.78;;;2.33;;
68106;SDS011;54892;47.488;19.026;2022-07-29T05:16:01;5.95;;;2.37;;
68106;SDS011;54892;47.488;19.026;2022-07-29T05:19:04;5.30;;;2.30;;
68106;SDS011;54892;47.488;19.026;2022-07-29T05:22:11;4.07;;;2.40;;
68106;SDS011;54892;47.488;19.026;2022-07-29T05:25:14;2.80;;;2.00;;
68106;SDS011;54892;47.488;19.026;2022-07-29T05:28:18;9.48;;;2.60;;
68106;SDS011;54892;47.488;19.026;2022-07-29T05:31:21;5.50;;;2.50;;
68106;SDS011;54892;47.488;19.026;2022-07-29T05:34:24;3.10;;;2.50;;
68106;SDS011;54892;47.488;19.026;2022-07-29T05:37:28;6.45;;;2.17;;
68106;SDS011;54892;47.488;19.026;2022-07-29T05:40:32;5.78;;;2.47;;
68106;SDS011;54892;47.488;19.026;2022-07-29T05:43:35;8.40;;;3.53;;
68106;SDS011;54892;47.488;19.026;2022-07-29T05:46:38;6.05;;;2.35;;
68106;SDS011;54892;47.488;19.026;2022-07-29T05:49:42;6.45;;;2.30;;
68106;SDS011;54892;47.488;19.026;2022-07-29T05:52:46;7.93;;;3.00;;
68106;SDS011;54892;47.488;19.026;2022-07-29T05:55:50;4.45;;;2.33;;
68106;SDS011;54892;47.488;19.026;2022-07-29T05:58:53;4.53;;;2.40;;
68106;SDS011;54892;47.488;19.026;2022-07-29T06:01:56;6.62;;;2.58;;
68106;SDS011;54892;47.488;19.026;2022-07-29T06:05:00;6.05;;;2.22;;
68106;SDS011;54892;47.488;19.026;2022-07-29T06:08:05;11.05;;;3.12;;
68106;SDS011;54892;47.488;19.026;2022-07-29T06:11:08;4.95;;;2.62;;
68106;SDS011;54892;47.488;19.026;2022-07-29T06:14:12;5.00;;;2.53;;
68106;SDS011;54892;47.488;19.026;2022-07-29T06:17:15;14.05;;;2.72;;
68106;SDS011;54892;47.488;19.026;2022-07-29T06:20:19;8.27;;;3.17;;
68106;SDS011;54892;47.488;19.026;2022-07-29T06:23:23;10.13;;;2.50;;
68106;SDS011;54892;47.488;19.026;2022-07-29T06:26:26;6.73;;;2.67;;
68106;SDS011;54892;47.488;19.026;2022-07-29T06:29:29;5.97;;;2.90;;
68106;SDS011;54892;47.488;19.026;2022-07-29T06:32:32;6.12;;;2.62;;
68106;SDS011;54892;47.488;19.026;2022-07-29T06:35:37;7.87;;;2.80;;
68106;SDS011;54892;47.488;19.026;2022-07-29T06:38:42;7.53;;;3.00;;
68106;SDS011;54892;47.488;19.026;2022-07-29T06:41:46;6.60;;;2.60;;
68106;SDS011;54892;47.488;19.026;2022-07-29T06:44:50;4.32;;;3.00;;
68106;SDS011;54892;47.488;19.026;2022-07-29T06:47:53;7.30;;;2.67;;
68106;SDS011;54892;47.488;19.026;2022-07-29T06:50:57;7.22;;;2.78;;
68106;SDS011;54892;47.488;19.026;2022-07-29T06:54:01;7.50;;;2.65;;
68106;SDS011;54892;47.488;19.026;2022-07-29T06:57:06;12.10;;;2.58;;
68106;SDS011;54892;47.488;19.026;2022-07-29T07:00:10;8.88;;;2.47;;
68106;SDS011;54892;47.488;19.026;2022-07-29T07:03:14;6.30;;;2.45;;
68106;SDS011;54892;47.488;19.026;2022-07-29T07:06:18;6.18;;;2.95;;
68106;SDS011;54892;47.488;19.026;2022-07-29T07:09:22;5.93;;;2.28;;
68106;SDS011;54892;47.488;19.026;2022-07-29T07:12:25;6.10;;;2.55;;
68106;SDS011;54892;47.488;19.026;2022-07-29T07:15:28;11.82;;;2.92;;
68106;SDS011;54892;47.488;19.026;2022-07-29T07:18:32;3.67;;;2.80;;
68106;SDS011;54892;47.488;19.026;2022-07-29T07:21:35;5.45;;;2.70;;
68106;SDS011;54892;47.488;19.026;2022-07-29T07:24:39;8.82;;;2.50;;
68106;SDS011;54892;47.488;19.026;2022-07-29T07:27:42;12.52;;;3.53;;
68106;SDS011;54892;47.488;19.026;2022-07-29T07:30:46;4.87;;;2.72;;
68106;SDS011;54892;47.488;19.026;2022-07-29T07:33:49;5.25;;;2.30;;
68106;SDS011;54892;47.488;19.026;2022-07-29T07:36:53;4.03;;;2.50;;
68106;SDS011;54892;47.488;19.026;2022-07-29T07:39:57;5.43;;;2.80;;
68106;SDS011;54892;47.488;19.026;2022-07-29T07:43:01;3.60;;;2.40;;
68106;SDS011;54892;47.488;19.026;2022-07-29T07:46:04;3.37;;;2.55;;
68106;SDS011;54892;47.488;19.026;2022-07-29T07:49:07;4.12;;;2.33;;
68106;SDS011;54892;47.488;19.026;2022-07-29T07:52:11;7.50;;;2.83;;
68106;SDS011;54892;47.488;19.026;2022-07-29T07:55:16;6.03;;;2.62;;
68106;SDS011;54892;47.488;19.026;2022-07-29T07:58:19;7.43;;;2.50;;
68106;SDS011;54892;47.488;19.026;2022-07-29T08:01:23;4.33;;;2.63;;
68106;SDS011;54892;47.488;19.026;2022-07-29T08:04:26;5.78;;;2.55;;
68106;SDS011;54892;47.488;19.026;2022-07-29T08:07:29;4.97;;;2.53;;
68106;SDS011;54892;47.488;19.026;2022-07-29T08:10:34;3.90;;;2.10;;
68106;SDS011;54892;47.488;19.026;2022-07-29T08:13:57;4.10;;;2.05;;
68106;SDS011;54892;47.488;19.026;2022-07-29T08:17:02;3.35;;;2.60;;
68106;SDS011;54892;47.488;19.026;2022-07-29T08:20:06;5.43;;;2.65;;
68106;SDS011;54892;47.488;19.026;2022-07-29T08:23:10;10.68;;;2.50;;
68106;SDS011;54892;47.488;19.026;2022-07-29T08:26:15;3.08;;;2.30;;
68106;SDS011;54892;47.488;19.026;2022-07-29T08:29:19;4.65;;;2.53;;
68106;SDS011;54892;47.488;19.026;2022-07-29T08:32:22;12.50;;;2.75;;
68106;SDS011;54892;47.488;19.026;2022-07-29T08:35:38;7.05;;;2.83;;
68106;SDS011;54892;47.488;19.026;2022-07-29T08:38:41;9.15;;;3.35;;
68106;SDS011;54892;47.488;19.026;2022-07-29T08:41:46;7.20;;;2.83;;
68106;SDS011;54892;47.488;19.026;2022-07-29T08:44:50;5.90;;;2.83;;
68106;SDS011;54892;47.488;19.026;2022-07-29T08:47:55;5.95;;;2.70;;
68106;SDS011;54892;47.488;19.026;2022-07-29T08:50:58;6.70;;;3.17;;
68106;SDS011;54892;47.488;19.026;2022-07-29T08:54:02;10.55;;;2.85;;
68106;SDS011;54892;47.488;19.026;2022-07-29T08:57:07;8.18;;;2.95;;
68106;SDS011;54892;47.488;19.026;2022-07-29T09:00:10;6.43;;;2.78;;
68106;SDS011;54892;47.488;19.026;2022-07-29T09:03:14;3.30;;;2.70;;
68106;SDS011;54892;47.488;19.026;2022-07-29T09:06:19;4.03;;;2.62;;
68106;SDS011;54892;47.488;19.026;2022-07-29T09:12:28;4.25;;;2.60;;
68106;SDS011;54892;47.488;19.026;2022-07-29T09:15:35;10.07;;;2.92;;
68106;SDS011;54892;47.488;19.026;2022-07-29T09:18:39;8.23;;;2.85;;
68106;SDS011;54892;47.488;19.026;2022-07-29T09:21:43;12.43;;;3.03;;
68106;SDS011;54892;47.488;19.026;2022-07-29T09:25:02;6.37;;;2.85;;
68106;SDS011;54892;47.488;19.026;2022-07-29T09:28:07;7.00;;;2.80;;
68106;SDS011;54892;47.488;19.026;2022-07-29T09:31:10;5.32;;;2.90;;
68106;SDS011;54892;47.488;19.026;2022-07-29T09:34:14;6.53;;;2.67;;
68106;SDS011;54892;47.488;19.026;2022-07-29T09:37:27;7.20;;;2.70;;
68106;SDS011;54892;47.488;19.026;2022-07-29T09:40:31;8.23;;;2.62;;
68106;SDS011;54892;47.488;19.026;2022-07-29T09:43:35;6.78;;;2.70;;
68106;SDS011;54892;47.488;19.026;2022-07-29T09:46:38;5.00;;;2.00;;
68106;SDS011;54892;47.488;19.026;2022-07-29T09:52:53;8.43;;;2.58;;
68106;SDS011;54892;47.488;19.026;2022-07-29T09:55:56;9.57;;;2.75;;
68106;SDS011;54892;47.488;19.026;2022-07-29T09:59:06;4.65;;;2.70;;
68106;SDS011;54892;47.488;19.026;2022-07-29T10:02:13;9.50;;;2.70;;
68106;SDS011;54892;47.488;19.026;2022-07-29T10:05:21;10.50;;;3.12;;
68106;SDS011;54892;47.488;19.026;2022-07-29T10:08:26;11.80;;;2.80;;
68106;SDS011;54892;47.488;19.026;2022-07-29T10:11:29;6.87;;;3.20;;
68106;SDS011;54892;47.488;19.026;2022-07-29T10:14:34;8.38;;;2.30;;
68106;SDS011;54892;47.488;19.026;2022-07-29T10:17:37;8.13;;;1.98;;
68106;SDS011;54892;47.488;19.026;2022-07-29T10:20:41;5.00;;;1.97;;
68106;SDS011;54892;47.488;19.026;2022-07-29T10:23:44;4.93;;;2.00;;
68106;SDS011;54892;47.488;19.026;2022-07-29T10:26:47;6.10;;;2.00;;
68106;SDS011;54892;47.488;19.026;2022-07-29T10:29:53;3.33;;;2.20;;
68106;SDS011;54892;47.488;19.026;2022-07-29T10:32:59;4.15;;;1.90;;
68106;SDS011;54892;47.488;19.026;2022-07-29T10:36:27;3.12;;;1.87;;
68106;SDS011;54892;47.488;19.026;2022-07-29T10:39:41;6.85;;;2.00;;
68106;SDS011;54892;47.488;19.026;2022-07-29T10:42:55;5.07;;;1.92;;
68106;SDS011;54892;47.488;19.026;2022-07-29T10:46:08;3.67;;;1.70;;
68106;SDS011;54892;47.488;19.026;2022-07-29T10:49:14;3.92;;;1.85;;
68106;SDS011;54892;47.488;19.026;2022-07-29T10:52:19;3.97;;;2.00;;
68106;SDS011;54892;47.488;19.026;2022-07-29T10:55:30;3.65;;;2.30;;
68106;SDS011;54892;47.488;19.026;2022-07-29T10:58:35;7.72;;;2.12;;
68106;SDS011;54892;47.488;19.026;2022-07-29T11:01:39;3.35;;;1.87;;
68106;SDS011;54892;47.488;19.026;2022-07-29T11:05:00;5.10;;;2.22;;
68106;SDS011;54892;47.488;19.026;2022-07-29T11:08:16;3.08;;;2.00;;
68106;SDS011;54892;47.488;19.026;2022-07-29T11:11:31;5.50;;;2.37;;
68106;SDS011;54892;47.488;19.026;2022-07-29T11:18:05;4.07;;;1.92;;
68106;SDS011;54892;47.488;19.026;2022-07-29T11:21:21;4.78;;;2.03;;
68106;SDS011;54892;47.488;19.026;2022-07-29T11:24:37;5.07;;;2.05;;
68106;SDS011;54892;47.488;19.026;2022-07-29T11:27:41;9.25;;;2.25;;
68106;SDS011;54892;47.488;19.026;2022-07-29T11:30:48;7.37;;;1.92;;
68106;SDS011;54892;47.488;19.026;2022-07-29T11:33:53;6.55;;;2.08;;
68106;SDS011;54892;47.488;19.026;2022-07-29T11:40:26;6.32;;;1.90;;
68106;SDS011;54892;47.488;19.026;2022-07-29T11:46:52;3.83;;;1.80;;
68106;SDS011;54892;47.488;19.026;2022-07-29T11:49:57;4.00;;;1.90;;
68106;SDS011;54892;47.488;19.026;2022-07-29T11:53:02;7.97;;;2.30;;
68106;SDS011;54892;47.488;19.026;2022-07-29T11:56:12;3.45;;;1.85;;
68106;SDS011;54892;47.488;19.026;2022-07-29T11:59:17;5.50;;;1.98;;
68106;SDS011;54892;47.488;19.026;2022-07-29T12:02:22;5.47;;;1.80;;
68106;SDS011;54892;47.488;19.026;2022-07-29T12:05:40;2.97;;;1.85;;
68106;SDS011;54892;47.488;19.026;2022-07-29T12:08:45;4.43;;;1.90;;
68106;SDS011;54892;47.488;19.026;2022-07-29T12:11:49;3.45;;;2.12;;
68106;SDS011;54892;47.488;19.026;2022-07-29T12:15:10;3.70;;;1.58;;
68106;SDS011;54892;47.488;19.026;2022-07-29T12:18:18;6.55;;;1.87;;
68106;SDS011;54892;47.488;19.026;2022-07-29T12:21:24;3.60;;;1.92;;
68106;SDS011;54892;47.488;19.026;2022-07-29T12:24:27;4.90;;;1.85;;
68106;SDS011;54892;47.488;19.026;2022-07-29T12:27:45;5.18;;;1.90;;
68106;SDS011;54892;47.488;19.026;2022-07-29T12:30:49;4.35;;;2.33;;
68106;SDS011;54892;47.488;19.026;2022-07-29T12:33:53;4.05;;;1.83;;
68106;SDS011;54892;47.488;19.026;2022-07-29T12:36:58;4.45;;;1.83;;
68106;SDS011;54892;47.488;19.026;2022-07-29T12:40:02;4.37;;;1.80;;
68106;SDS011;54892;47.488;19.026;2022-07-29T12:46:14;6.80;;;1.87;;
68106;SDS011;54892;47.488;19.026;2022-07-29T12:49:20;5.53;;;1.80;;
68106;SDS011;54892;47.488;19.026;2022-07-29T12:52:26;5.80;;;1.80;;
68106;SDS011;54892;47.488;19.026;2022-07-29T12:55:43;7.35;;;2.25;;
68106;SDS011;54892;47.488;19.026;2022-07-29T12:58:50;2.05;;;1.85;;
68106;SDS011;54892;47.488;19.026;2022-07-29T13:01:53;5.07;;;2.10;;
68106;SDS011;54892;47.488;19.026;2022-07-29T13:04:57;3.70;;;2.12;;
68106;SDS011;54892;47.488;19.026;2022-07-29T13:08:11;4.12;;;2.28;;
68106;SDS011;54892;47.488;19.026;2022-07-29T13:11:27;3.45;;;1.70;;
68106;SDS011;54892;47.488;19.026;2022-07-29T13:14:32;2.08;;;1.87;;
68106;SDS011;54892;47.488;19.026;2022-07-29T13:17:39;3.60;;;2.50;;
68106;SDS011;54892;47.488;19.026;2022-07-29T13:20:43;8.90;;;2.75;;
68106;SDS011;54892;47.488;19.026;2022-07-29T13:23:48;4.60;;;1.90;;
68106;SDS011;54892;47.488;19.026;2022-07-29T13:26:51;10.75;;;2.67;;
68106;SDS011;54892;47.488;19.026;2022-07-29T13:29:54;6.55;;;1.92;;
68106;SDS011;54892;47.488;19.026;2022-07-29T13:32:59;6.25;;;1.98;;
68106;SDS011;54892;47.488;19.026;2022-07-29T13:36:03;7.73;;;2.37;;
68106;SDS011;54892;47.488;19.026;2022-07-29T13:39:07;6.45;;;2.00;;
68106;SDS011;54892;47.488;19.026;2022-07-29T13:42:12;4.28;;;1.85;;
68106;SDS011;54892;47.488;19.026;2022-07-29T13:45:15;7.50;;;1.90;;
68106;SDS011;54892;47.488;19.026;2022-07-29T13:48:18;2.15;;;1.90;;
68106;SDS011;54892;47.488;19.026;2022-07-29T13:51:22;3.72;;;1.98;;
68106;SDS011;54892;47.488;19.026;2022-07-29T13:54:26;7.60;;;2.10;;
68106;SDS011;54892;47.488;19.026;2022-07-29T13:57:30;5.00;;;2.00;;
68106;SDS011;54892;47.488;19.026;2022-07-29T14:00:33;5.75;;;2.22;;
68106;SDS011;54892;47.488;19.026;2022-07-29T14:03:36;3.08;;;1.95;;
68106;SDS011;54892;47.488;19.026;2022-07-29T14:06:42;5.45;;;2.30;;
68106;SDS011;54892;47.488;19.026;2022-07-29T14:09:47;4.07;;;1.92;;
68106;SDS011;54892;47.488;19.026;2022-07-29T14:15:53;4.22;;;2.10;;
68106;SDS011;54892;47.488;19.026;2022-07-29T14:18:57;3.72;;;1.85;;
68106;SDS011;54892;47.488;19.026;2022-07-29T14:22:00;3.22;;;2.05;;
68106;SDS011;54892;47.488;19.026;2022-07-29T14:25:06;3.80;;;2.05;;
68106;SDS011;54892;47.488;19.026;2022-07-29T14:28:09;3.15;;;1.70;;
68106;SDS011;54892;47.488;19.026;2022-07-29T14:31:13;4.20;;;2.15;;
68106;SDS011;54892;47.488;19.026;2022-07-29T14:34:16;3.37;;;2.03;;
68106;SDS011;54892;47.488;19.026;2022-07-29T14:37:20;5.60;;;2.05;;
68106;SDS011;54892;47.488;19.026;2022-07-29T14:40:24;10.02;;;2.12;;
68106;SDS011;54892;47.488;19.026;2022-07-29T14:43:28;3.35;;;2.10;;
68106;SDS011;54892;47.488;19.026;2022-07-29T14:46:31;3.95;;;1.80;;
68106;SDS011;54892;47.488;19.026;2022-07-29T14:49:35;5.00;;;2.07;;
68106;SDS011;54892;47.488;19.026;2022-07-29T14:52:38;5.12;;;2.17;;
68106;SDS011;54892;47.488;19.026;2022-07-29T14:55:43;6.05;;;2.08;;
68106;SDS011;54892;47.488;19.026;2022-07-29T14:58:47;4.15;;;2.10;;
68106;SDS011;54892;47.488;19.026;2022-07-29T15:01:50;11.90;;;2.25;;
68106;SDS011;54892;47.488;19.026;2022-07-29T15:04:53;7.00;;;2.78;;
68106;SDS011;54892;47.488;19.026;2022-07-29T15:07:57;5.05;;;1.80;;
68106;SDS011;54892;47.488;19.026;2022-07-29T15:11:02;9.57;;;2.60;;
68106;SDS011;54892;47.488;19.026;2022-07-29T15:14:06;7.22;;;2.50;;
68106;SDS011;54892;47.488;19.026;2022-07-29T15:17:09;4.00;;;2.00;;
68106;SDS011;54892;47.488;19.026;2022-07-29T15:20:12;7.00;;;2.10;;
68106;SDS011;54892;47.488;19.026;2022-07-29T15:23:15;8.82;;;2.00;;
68106;SDS011;54892;47.488;19.026;2022-07-29T15:26:19;2.95;;;2.20;;
68106;SDS011;54892;47.488;19.026;2022-07-29T15:29:23;3.12;;;1.92;;
68106;SDS011;54892;47.488;19.026;2022-07-29T15:32:27;6.80;;;2.20;;
68106;SDS011;54892;47.488;19.026;2022-07-29T15:35:30;3.85;;;1.80;;
68106;SDS011;54892;47.488;19.026;2022-07-29T15:38:33;7.30;;;1.98;;
68106;SDS011;54892;47.488;19.026;2022-07-29T15:41:37;6.40;;;1.87;;
68106;SDS011;54892;47.488;19.026;2022-07-29T15:44:41;4.15;;;2.17;;
68106;SDS011;54892;47.488;19.026;2022-07-29T15:47:44;7.35;;;2.25;;
68106;SDS011;54892;47.488;19.026;2022-07-29T15:50:50;7.62;;;2.05;;
68106;SDS011;54892;47.488;19.026;2022-07-29T15:53:53;4.93;;;2.20;;
68106;SDS011;54892;47.488;19.026;2022-07-29T15:56:58;4.18;;;1.92;;
68106;SDS011;54892;47.488;19.026;2022-07-29T16:00:02;3.50;;;1.80;;
68106;SDS011;54892;47.488;19.026;2022-07-29T16:06:09;2.85;;;1.85;;
68106;SDS011;54892;47.488;19.026;2022-07-29T16:09:12;4.80;;;1.90;;
68106;SDS011;54892;47.488;19.026;2022-07-29T16:12:17;3.28;;;1.75;;
68106;SDS011;54892;47.488;19.026;2022-07-29T16:15:20;4.20;;;2.00;;
68106;SDS011;54892;47.488;19.026;2022-07-29T16:18:24;5.40;;;2.22;;
68106;SDS011;54892;47.488;19.026;2022-07-29T16:21:27;5.93;;;2.03;;
68106;SDS011;54892;47.488;19.026;2022-07-29T16:24:32;5.55;;;2.28;;
68106;SDS011;54892;47.488;19.026;2022-07-29T16:27:36;3.53;;;2.00;;
68106;SDS011;54892;47.488;19.026;2022-07-29T16:30:39;3.05;;;2.00;;
68106;SDS011;54892;47.488;19.026;2022-07-29T16:33:42;5.30;;;2.20;;
68106;SDS011;54892;47.488;19.026;2022-07-29T16:36:46;3.80;;;1.95;;
68106;SDS011;54892;47.488;19.026;2022-07-29T16:39:49;5.43;;;2.25;;
68106;SDS011;54892;47.488;19.026;2022-07-29T16:42:53;4.95;;;2.20;;
68106;SDS011;54892;47.488;19.026;2022-07-29T16:45:56;4.12;;;2.10;;
68106;SDS011;54892;47.488;19.026;2022-07-29T16:48:59;3.60;;;2.00;;
68106;SDS011;54892;47.488;19.026;2022-07-29T16:52:03;3.15;;;1.90;;
68106;SDS011;54892;47.488;19.026;2022-07-29T16:55:07;4.50;;;1.87;;
68106;SDS011;54892;47.488;19.026;2022-07-29T16:58:11;4.10;;;1.90;;
68106;SDS011;54892;47.488;19.026;2022-07-29T17:01:15;5.70;;;2.00;;
68106;SDS011;54892;47.488;19.026;2022-07-29T17:04:18;3.28;;;2.00;;
68106;SDS011;54892;47.488;19.026;2022-07-29T17:07:22;3.00;;;2.13;;
68106;SDS011;54892;47.488;19.026;2022-07-29T17:10:25;3.15;;;2.30;;
68106;SDS011;54892;47.488;19.026;2022-07-29T17:13:31;5.75;;;2.20;;
68106;SDS011;54892;47.488;19.026;2022-07-29T17:19:38;4.62;;;2.35;;
68106;SDS011;54892;47.488;19.026;2022-07-29T17:22:41;3.80;;;2.30;;
68106;SDS011;54892;47.488;19.026;2022-07-29T17:25:44;6.50;;;2.53;;
68106;SDS011;54892;47.488;19.026;2022-07-29T17:28:49;4.60;;;2.00;;
68106;SDS011;54892;47.488;19.026;2022-07-29T17:31:53;3.47;;;2.00;;
68106;SDS011;54892;47.488;19.026;2022-07-29T17:34:56;4.43;;;2.03;;
68106;SDS011;54892;47.488;19.026;2022-07-29T17:37:59;4.10;;;2.20;;
68106;SDS011;54892;47.488;19.026;2022-07-29T17:41:03;5.65;;;2.20;;
68106;SDS011;54892;47.488;19.026;2022-07-29T17:44:07;5.55;;;2.30;;
68106;SDS011;54892;47.488;19.026;2022-07-29T17:47:10;7.80;;;2.12;;
68106;SDS011;54892;47.488;19.026;2022-07-29T17:50:14;7.00;;;2.30;;
68106;SDS011;54892;47.488;19.026;2022-07-29T17:53:17;8.23;;;2.50;;
68106;SDS011;54892;47.488;19.026;2022-07-29T17:56:21;5.28;;;2.50;;
68106;SDS011;54892;47.488;19.026;2022-07-29T17:59:25;5.40;;;2.87;;
68106;SDS011;54892;47.488;19.026;2022-07-29T18:05:31;5.70;;;2.47;;
68106;SDS011;54892;47.488;19.026;2022-07-29T18:08:35;11.60;;;2.70;;
68106;SDS011;54892;47.488;19.026;2022-07-29T18:11:38;5.18;;;2.50;;
68106;SDS011;54892;47.488;19.026;2022-07-29T18:14:42;4.72;;;2.40;;
68106;SDS011;54892;47.488;19.026;2022-07-29T18:17:45;2.70;;;2.22;;
68106;SDS011;54892;47.488;19.026;2022-07-29T18:20:49;9.13;;;2.60;;
68106;SDS011;54892;47.488;19.026;2022-07-29T18:23:52;8.90;;;2.53;;
68106;SDS011;54892;47.488;19.026;2022-07-29T18:26:55;5.43;;;2.40;;
68106;SDS011;54892;47.488;19.026;2022-07-29T18:30:00;9.98;;;2.70;;
68106;SDS011;54892;47.488;19.026;2022-07-29T18:36:23;5.25;;;2.50;;
68106;SDS011;54892;47.488;19.026;2022-07-29T18:39:26;8.75;;;2.47;;
68106;SDS011;54892;47.488;19.026;2022-07-29T18:42:30;5.12;;;2.37;;
68106;SDS011;54892;47.488;19.026;2022-07-29T18:45:34;4.37;;;2.28;;
68106;SDS011;54892;47.488;19.026;2022-07-29T18:48:38;4.80;;;2.20;;
68106;SDS011;54892;47.488;19.026;2022-07-29T18:51:41;10.05;;;2.30;;